createdAt,value
2023-03-20T00:01:30.672Z,10.63
2023-03-20T00:03:02.187Z,10.57
2023-03-20T00:04:34.026Z,10.46
2023-03-20T00:06:12.230Z,10.38
2023-03-20T00:07:43.941Z,10.34
2023-03-20T00:09:15.687Z,10.28
2023-03-20T00:10:47.650Z,10.26
2023-03-20T00:12:22.328Z,10.23
2023-03-20T00:13:54.699Z,10.13
2023-03-20T00:15:26.206Z,9.99
2023-03-20T00:16:58.053Z,9.85
2023-03-20T00:18:29.570Z,9.71
2023-03-20T00:20:01.429Z,9.64
2023-03-20T00:21:33.060Z,9.60
2023-03-20T00:23:05.084Z,9.56
2023-03-20T00:24:36.704Z,9.56
2023-03-20T00:26:09.541Z,9.56
2023-03-20T00:27:41.550Z,9.58
2023-03-20T00:29:22.213Z,9.54
2023-03-20T00:30:53.724Z,9.52
2023-03-20T00:32:25.723Z,9.49
2023-03-20T00:33:58.133Z,9.45
2023-03-20T00:35:30.171Z,9.40
2023-03-20T00:37:01.824Z,9.41
2023-03-20T00:38:33.512Z,9.35
2023-03-20T00:40:05.722Z,9.28
2023-03-20T00:41:41.780Z,9.24
2023-03-20T00:43:13.815Z,9.23
2023-03-20T00:44:49.006Z,9.22
2023-03-20T00:46:20.869Z,9.16
2023-03-20T00:47:53.044Z,9.08
2023-03-20T00:49:31.173Z,8.97
2023-03-20T00:51:04.521Z,8.86
2023-03-20T00:52:36.177Z,8.75
2023-03-20T00:54:12.662Z,8.68
2023-03-20T00:55:44.208Z,8.61
2023-03-20T00:57:24.170Z,8.60
2023-03-20T00:58:55.762Z,8.59
2023-03-20T01:00:27.684Z,8.58
2023-03-20T01:01:59.560Z,8.61
2023-03-20T01:03:32.282Z,8.64
2023-03-20T01:05:05.718Z,8.69
2023-03-20T01:06:37.615Z,8.72
2023-03-20T01:08:19.181Z,8.76
2023-03-20T01:09:51.467Z,8.76
2023-03-20T01:11:23.030Z,8.66
2023-03-20T01:12:54.803Z,8.61
2023-03-20T01:14:26.601Z,8.58
2023-03-20T01:15:58.207Z,8.55
2023-03-20T01:17:30.161Z,8.49
2023-03-20T01:19:01.708Z,8.39
2023-03-20T01:20:33.214Z,8.29
2023-03-20T01:22:05.012Z,8.20
2023-03-20T01:23:36.481Z,8.13
2023-03-20T01:25:08.285Z,8.08
2023-03-20T01:26:40.893Z,8.01
2023-03-20T01:28:32.741Z,7.94
2023-03-20T01:30:04.512Z,7.84
2023-03-20T01:31:36.440Z,7.75
2023-03-20T01:33:14.199Z,7.69
2023-03-20T01:34:45.771Z,7.55
2023-03-20T01:36:18.012Z,7.45
2023-03-20T01:37:50.425Z,7.41
2023-03-20T01:39:24.451Z,7.43
2023-03-20T01:40:58.649Z,7.42
2023-03-20T01:42:30.287Z,7.46
2023-03-20T01:44:01.858Z,7.43
2023-03-20T01:45:35.535Z,7.43
2023-03-20T01:47:12.706Z,7.41
2023-03-20T01:48:50.084Z,7.37
2023-03-20T01:50:22.808Z,7.34
2023-03-20T01:51:54.456Z,7.31
2023-03-20T01:53:28.551Z,7.28
2023-03-20T01:55:00.117Z,7.26
2023-03-20T01:56:32.787Z,7.21
2023-03-20T01:58:06.407Z,7.18
2023-03-20T01:59:45.255Z,7.19
2023-03-20T02:01:16.967Z,7.16
2023-03-20T02:02:48.623Z,7.12
2023-03-20T02:04:20.629Z,7.11
2023-03-20T02:05:52.167Z,7.07
2023-03-20T02:07:24.049Z,7.02
2023-03-20T02:08:55.545Z,6.95
2023-03-20T02:10:27.162Z,6.95
2023-03-20T02:11:59.271Z,6.92
2023-03-20T02:13:31.322Z,6.89
2023-03-20T02:15:03.533Z,6.87
2023-03-20T02:16:35.114Z,6.85
2023-03-20T02:18:06.662Z,6.85
2023-03-20T02:19:56.911Z,6.84
2023-03-20T02:21:51.504Z,6.86
2023-03-20T02:23:27.299Z,6.81
2023-03-20T02:25:17.779Z,6.77
2023-03-20T02:26:55.764Z,6.71
2023-03-20T02:28:39.258Z,6.69
2023-03-20T02:30:11.590Z,6.68
2023-03-20T02:31:54.988Z,6.57
2023-03-20T02:33:47.450Z,6.47
2023-03-20T02:35:21.918Z,6.39
2023-03-20T02:37:19.672Z,6.33
2023-03-20T02:38:57.692Z,6.30
2023-03-20T02:40:38.531Z,6.34
2023-03-20T02:42:28.003Z,6.36
2023-03-20T02:44:12.403Z,6.41
2023-03-20T02:46:00.213Z,6.43
2023-03-20T02:47:52.446Z,6.46
2023-03-20T02:49:44.327Z,6.49
2023-03-20T02:51:20.867Z,6.51
2023-03-20T02:52:58.074Z,6.54
2023-03-20T02:54:36.363Z,6.54
2023-03-20T02:56:25.103Z,6.56
2023-03-20T02:58:02.901Z,6.57
2023-03-20T02:59:37.907Z,6.55
2023-03-20T03:01:10.632Z,6.53
2023-03-20T03:03:05.536Z,6.49
2023-03-20T03:04:41.781Z,6.43
2023-03-20T03:06:24.541Z,6.40
2023-03-20T03:07:56.989Z,6.42
2023-03-20T03:12:44.037Z,6.44
2023-03-20T03:14:36.348Z,6.48
2023-03-20T03:16:10.629Z,6.57
2023-03-20T03:17:42.774Z,6.64
2023-03-20T03:19:16.084Z,6.68
2023-03-20T03:20:48.584Z,6.75
2023-03-20T03:22:21.370Z,6.81
2023-03-20T03:23:57.089Z,6.84
2023-03-20T03:25:34.171Z,6.97
2023-03-20T03:27:35.869Z,7.03
2023-03-20T03:29:15.572Z,7.11
2023-03-20T03:30:52.117Z,7.14
2023-03-20T03:32:50.942Z,7.13
2023-03-20T03:34:27.775Z,7.09
2023-03-20T03:38:36.844Z,6.98
2023-03-20T03:40:21.283Z,6.95
2023-03-20T03:41:54.382Z,6.92
2023-03-20T03:43:28.090Z,6.90
2023-03-20T03:45:18.692Z,6.87
2023-03-20T03:46:52.205Z,6.85
2023-03-20T03:48:28.080Z,6.83
2023-03-20T03:50:03.762Z,6.86
2023-03-20T03:51:36.340Z,6.87
2023-03-20T03:53:09.540Z,6.89
2023-03-20T03:54:44.664Z,6.84
2023-03-20T03:56:17.038Z,6.78
2023-03-20T03:57:58.067Z,6.75
2023-03-20T03:59:38.902Z,6.70
2023-03-20T04:01:14.375Z,6.63
2023-03-20T04:02:47.005Z,6.60
2023-03-20T04:04:23.326Z,6.53
2023-03-20T04:06:00.815Z,6.50
2023-03-20T04:07:37.622Z,6.44
2023-03-20T04:09:12.079Z,6.41
2023-03-20T04:10:43.791Z,6.37
2023-03-20T04:12:33.843Z,6.31
2023-03-20T04:14:05.394Z,6.23
2023-03-20T04:15:37.229Z,6.21
2023-03-20T04:17:08.872Z,6.18
2023-03-20T04:18:40.990Z,6.16
2023-03-20T04:20:12.737Z,6.17
2023-03-20T04:21:46.320Z,6.12
2023-03-20T04:23:17.974Z,6.06
2023-03-20T04:24:49.757Z,5.96
2023-03-20T04:26:22.078Z,5.88
2023-03-20T04:27:54.073Z,5.82
2023-03-20T04:29:26.613Z,5.75
2023-03-20T04:30:58.827Z,5.67
2023-03-20T04:32:30.884Z,5.61
2023-03-20T04:34:02.480Z,5.58
2023-03-20T04:35:34.414Z,5.58
2023-03-20T04:37:08.509Z,5.62
2023-03-20T04:38:40.200Z,5.66
2023-03-20T04:40:13.150Z,5.67
2023-03-20T04:41:44.852Z,5.70
2023-03-20T04:43:16.635Z,5.68
2023-03-20T04:44:48.295Z,5.66
2023-03-20T04:46:20.141Z,5.67
2023-03-20T04:47:51.730Z,5.67
2023-03-20T04:49:23.512Z,5.67
2023-03-20T04:50:55.500Z,5.70
2023-03-20T04:52:27.304Z,5.73
2023-03-20T04:53:58.989Z,5.76
2023-03-20T04:55:30.837Z,5.79
2023-03-20T04:57:02.570Z,5.82
2023-03-20T04:58:36.016Z,5.81
2023-03-20T05:00:08.059Z,5.83
2023-03-20T05:01:39.786Z,5.87
2023-03-20T05:03:11.367Z,5.88
2023-03-20T05:04:42.901Z,5.85
2023-03-20T05:06:14.524Z,5.83
2023-03-20T05:07:46.112Z,5.81
2023-03-20T05:09:17.814Z,5.80
2023-03-20T05:10:49.241Z,5.83
2023-03-20T05:12:21.385Z,5.82
2023-03-20T05:13:53.119Z,5.84
2023-03-20T05:15:24.647Z,5.87
2023-03-20T05:16:56.364Z,5.96
2023-03-20T05:18:28.004Z,6.05
2023-03-20T05:20:00.192Z,6.16
2023-03-20T05:21:31.700Z,6.26
2023-03-20T05:23:05.883Z,6.31
2023-03-20T05:24:37.840Z,6.35
2023-03-20T05:26:09.566Z,6.42
2023-03-20T05:27:41.228Z,6.46
2023-03-20T05:29:13.318Z,6.50
2023-03-20T05:30:44.856Z,6.59
2023-03-20T05:32:16.588Z,6.66
2023-03-20T05:33:48.146Z,6.74
2023-03-20T05:35:19.641Z,6.81
2023-03-20T05:36:51.238Z,6.88
2023-03-20T05:38:22.898Z,6.98
2023-03-20T05:39:54.551Z,7.05
2023-03-20T05:41:26.117Z,7.05
2023-03-20T05:42:57.749Z,7.10
2023-03-20T05:44:29.278Z,7.15
2023-03-20T05:46:01.411Z,7.13
2023-03-20T05:47:33.011Z,7.12
2023-03-20T05:49:04.615Z,7.14
2023-03-20T05:50:36.368Z,7.24
2023-03-20T05:52:08.210Z,7.33
2023-03-20T05:53:39.862Z,7.37
2023-03-20T05:55:11.453Z,7.40
2023-03-20T05:56:43.053Z,7.50
2023-03-20T05:58:14.649Z,7.60
2023-03-20T05:59:46.203Z,7.76
2023-03-20T06:01:21.756Z,7.93
2023-03-20T06:02:53.444Z,8.12
2023-03-20T06:04:24.982Z,8.29
2023-03-20T06:05:56.693Z,8.44
2023-03-20T06:07:28.263Z,8.58
2023-03-20T06:08:59.856Z,8.70
2023-03-20T06:10:31.624Z,8.74
2023-03-20T06:12:03.241Z,8.78
2023-03-20T06:13:34.961Z,8.82
2023-03-20T06:15:06.859Z,8.93
2023-03-20T06:16:38.856Z,8.99
2023-03-20T06:18:10.502Z,9.02
2023-03-20T06:19:42.318Z,9.00
2023-03-20T06:21:14.289Z,9.06
2023-03-20T06:22:46.970Z,9.10
2023-03-20T06:24:18.869Z,9.10
2023-03-20T06:25:50.679Z,9.13
2023-03-20T06:27:22.226Z,9.18
2023-03-20T06:28:53.968Z,9.17
2023-03-20T06:30:25.548Z,9.13
2023-03-20T06:31:57.241Z,9.15
2023-03-20T06:33:29.178Z,9.16
2023-03-20T06:35:00.953Z,9.11
2023-03-20T06:36:32.647Z,9.05
2023-03-20T06:38:04.460Z,9.06
2023-03-20T06:39:36.981Z,9.10
2023-03-20T06:41:09.114Z,9.14
2023-03-20T06:42:40.897Z,9.25
2023-03-20T06:44:13.109Z,9.38
2023-03-20T06:45:44.642Z,9.51
2023-03-20T06:47:16.463Z,9.70
2023-03-20T06:48:48.810Z,9.88
2023-03-20T06:50:20.370Z,10.01
2023-03-20T06:51:52.083Z,10.09
2023-03-20T06:53:23.798Z,10.20
2023-03-20T06:54:56.729Z,10.27
2023-03-20T06:56:28.341Z,10.36
2023-03-20T06:57:59.992Z,10.47
2023-03-20T06:59:31.607Z,10.58
2023-03-20T07:01:03.406Z,10.65
2023-03-20T07:02:35.217Z,10.66
2023-03-20T07:04:07.129Z,10.65
2023-03-20T07:05:39.366Z,10.70
2023-03-20T07:07:11.186Z,10.78
2023-03-20T07:08:44.782Z,10.81
2023-03-20T07:10:17.490Z,10.82
2023-03-20T07:11:49.327Z,10.83
2023-03-20T07:13:20.965Z,10.88
2023-03-20T07:14:52.573Z,10.91
2023-03-20T07:16:24.354Z,10.96
2023-03-20T07:17:55.996Z,11.05
2023-03-20T07:19:27.903Z,11.14
2023-03-20T07:21:03.270Z,11.14
2023-03-20T07:22:34.828Z,11.17
2023-03-20T07:24:07.634Z,11.20
2023-03-20T07:25:42.796Z,11.22
2023-03-20T07:27:15.226Z,11.30
2023-03-20T07:28:46.898Z,11.34
2023-03-20T07:30:18.744Z,11.38
2023-03-20T07:31:50.620Z,11.44
2023-03-20T07:33:22.402Z,11.53
2023-03-20T07:34:54.140Z,11.63
2023-03-20T07:36:26.127Z,11.62
2023-03-20T07:37:58.335Z,11.76
2023-03-20T07:39:55.555Z,11.86
2023-03-20T07:49:43.400Z,12.59
2023-03-20T07:51:15.581Z,12.95
2023-03-20T07:52:47.941Z,13.18
2023-03-20T07:54:19.486Z,13.40
2023-03-20T07:55:51.204Z,13.64
2023-03-20T07:57:22.946Z,13.84
2023-03-20T07:58:54.742Z,14.02
2023-03-20T08:00:28.184Z,14.10
2023-03-20T08:02:00.127Z,14.21
2023-03-20T08:03:32.133Z,14.28
2023-03-20T08:05:04.133Z,14.36
2023-03-20T08:06:36.611Z,14.51
2023-03-20T08:08:08.934Z,14.57
2023-03-20T08:09:41.731Z,14.72
2023-03-20T08:11:15.912Z,14.76
2023-03-20T08:12:48.735Z,14.89
2023-03-20T08:14:20.283Z,15.02
2023-03-20T08:15:52.002Z,15.13
2023-03-20T08:17:24.131Z,15.24
2023-03-20T08:19:01.401Z,15.35
2023-03-20T08:20:33.239Z,15.50
2023-03-20T08:22:04.878Z,15.67
2023-03-20T08:23:37.207Z,15.72
2023-03-20T08:25:09.549Z,15.78
2023-03-20T08:26:41.260Z,15.86
2023-03-20T08:28:13.094Z,15.98
2023-03-20T08:29:44.709Z,16.11
2023-03-20T08:31:17.151Z,16.17
2023-03-20T08:32:48.802Z,16.42
2023-03-20T08:34:22.867Z,16.65
2023-03-20T08:35:56.507Z,16.68
2023-03-20T08:37:28.383Z,16.68
2023-03-20T08:39:00.810Z,16.65
2023-03-20T08:40:33.004Z,16.72
2023-03-20T08:42:05.010Z,16.65
2023-03-20T08:43:36.766Z,16.66
2023-03-20T08:45:08.700Z,16.68
2023-03-20T08:46:40.477Z,16.73
2023-03-20T08:48:12.066Z,16.87
2023-03-20T08:49:44.096Z,17.06
2023-03-20T08:51:16.172Z,17.21
2023-03-20T08:52:47.701Z,17.30
2023-03-20T08:54:19.381Z,17.29
2023-03-20T08:55:51.385Z,17.42
2023-03-20T08:57:23.001Z,17.54
2023-03-20T08:58:56.170Z,17.70
2023-03-20T09:00:27.859Z,17.80
2023-03-20T09:01:59.457Z,17.70
2023-03-20T09:03:31.925Z,17.77
2023-03-20T09:05:03.620Z,17.97
2023-03-20T09:06:38.953Z,18.18
2023-03-20T09:08:11.130Z,18.27
2023-03-20T09:09:42.924Z,18.27
2023-03-20T09:11:14.955Z,18.33
2023-03-20T09:12:49.910Z,18.37
2023-03-20T09:14:21.670Z,18.50
2023-03-20T09:15:53.646Z,18.65
2023-03-20T09:17:25.408Z,18.74
2023-03-20T09:18:57.088Z,18.82
2023-03-20T09:20:28.726Z,18.89
2023-03-20T09:22:00.609Z,18.92
2023-03-20T09:23:32.302Z,18.79
2023-03-20T09:25:03.955Z,18.81
2023-03-20T09:26:35.810Z,18.87
2023-03-20T09:28:08.093Z,18.97
2023-03-20T09:29:40.718Z,19.04
2023-03-20T09:31:12.684Z,19.08
2023-03-20T09:32:44.610Z,19.00
2023-03-20T09:34:17.390Z,19.13
2023-03-20T09:35:49.100Z,19.15
2023-03-20T09:37:20.846Z,19.21
2023-03-20T09:38:52.357Z,19.21
2023-03-20T09:40:31.497Z,19.24
2023-03-20T09:42:08.144Z,19.41
2023-03-20T09:43:48.926Z,19.50
2023-03-20T09:45:23.478Z,19.51
2023-03-20T09:47:16.557Z,19.50
2023-03-20T09:49:12.534Z,19.47
2023-03-20T09:50:50.427Z,19.61
2023-03-20T09:52:25.055Z,19.75
2023-03-20T09:53:59.271Z,19.84
2023-03-20T09:55:35.351Z,19.89
2023-03-20T09:57:07.565Z,20.01
2023-03-20T09:58:40.520Z,20.00
2023-03-20T10:00:16.708Z,19.93
2023-03-20T10:01:56.280Z,19.84
2023-03-20T10:03:28.780Z,20.06
2023-03-20T10:05:00.504Z,20.24
2023-03-20T10:06:32.268Z,20.37
2023-03-20T10:08:04.904Z,20.30
2023-03-20T10:09:36.592Z,20.32
2023-03-20T10:11:20.171Z,20.36
2023-03-20T10:13:09.707Z,20.52
2023-03-20T10:14:50.101Z,20.52
2023-03-20T10:16:25.861Z,20.64
2023-03-20T10:18:03.730Z,20.60
2023-03-20T10:19:46.093Z,20.61
2023-03-20T10:21:19.147Z,20.69
2023-03-20T10:22:54.350Z,20.73
2023-03-20T10:24:28.373Z,20.79
2023-03-20T10:26:01.155Z,20.79
2023-03-20T10:28:05.076Z,20.83
2023-03-20T10:29:54.798Z,20.90
2023-03-20T10:31:32.178Z,20.89
2023-03-20T10:33:25.214Z,20.89
2023-03-20T10:34:58.723Z,20.93
2023-03-20T10:36:48.876Z,21.01
2023-03-20T10:38:26.800Z,21.17
2023-03-20T10:40:07.504Z,21.25
2023-03-20T10:41:39.325Z,21.28
2023-03-20T10:43:17.581Z,21.34
2023-03-20T10:44:55.001Z,21.46
2023-03-20T10:46:27.923Z,21.44
2023-03-20T10:48:01.134Z,21.45
2023-03-20T10:49:38.707Z,21.60
2023-03-20T10:51:14.856Z,21.69
2023-03-20T10:52:46.746Z,21.86
2023-03-20T10:54:31.602Z,21.78
2023-03-20T10:56:06.878Z,21.76
2023-03-20T10:57:39.722Z,21.87
2023-03-20T10:59:31.574Z,22.01
2023-03-20T11:01:03.681Z,22.05
2023-03-20T11:02:36.831Z,22.06
2023-03-20T11:04:08.388Z,22.04
2023-03-20T11:05:42.023Z,22.22
2023-03-20T11:07:16.696Z,22.49
2023-03-20T11:08:49.773Z,22.73
2023-03-20T11:10:21.446Z,22.95
2023-03-20T11:11:53.944Z,23.14
2023-03-20T11:13:27.900Z,23.15
2023-03-20T11:15:23.558Z,23.16
2023-03-20T11:16:55.765Z,23.18
2023-03-20T11:18:27.936Z,23.14
2023-03-20T11:20:03.307Z,23.24
2023-03-20T11:21:35.856Z,23.21
2023-03-20T11:23:08.422Z,23.30
2023-03-20T11:24:44.490Z,23.44
2023-03-20T11:26:17.150Z,23.68
2023-03-20T11:27:49.057Z,23.85
2023-03-20T11:29:29.367Z,24.01
2023-03-20T11:31:06.869Z,24.06
2023-03-20T11:32:41.960Z,24.05
2023-03-20T11:34:16.201Z,24.02
2023-03-20T11:35:47.989Z,23.97
2023-03-20T11:37:21.748Z,24.03
2023-03-20T11:38:53.700Z,24.13
2023-03-20T11:40:26.068Z,24.15
2023-03-20T11:41:58.129Z,24.17
2023-03-20T11:43:29.726Z,24.21
2023-03-20T11:45:02.393Z,24.27
2023-03-20T11:46:34.112Z,24.23
2023-03-20T11:48:05.935Z,24.06
2023-03-20T11:49:56.737Z,24.00
2023-03-20T11:51:28.247Z,24.02
2023-03-20T11:53:01.172Z,24.09
2023-03-20T11:54:32.944Z,24.16
2023-03-20T11:56:09.022Z,24.16
2023-03-20T11:57:41.315Z,24.26
2023-03-20T11:59:14.155Z,24.27
2023-03-20T12:00:47.713Z,24.32
2023-03-20T12:02:20.005Z,24.34
2023-03-20T12:03:55.916Z,24.42
2023-03-20T12:05:28.184Z,24.39
2023-03-20T12:07:19.991Z,24.45
2023-03-20T12:08:53.089Z,24.61
2023-03-20T12:10:25.311Z,24.61
2023-03-20T12:12:00.196Z,24.63
2023-03-20T12:13:36.500Z,24.53
2023-03-20T12:15:11.408Z,24.52
2023-03-20T12:16:46.161Z,24.51
2023-03-20T12:18:18.028Z,24.48
2023-03-20T12:19:49.639Z,24.50
2023-03-20T12:21:30.224Z,24.58
2023-03-20T12:23:14.965Z,24.79
2023-03-20T12:24:49.680Z,24.96
2023-03-20T12:26:24.136Z,24.90
2023-03-20T12:28:04.032Z,24.98
2023-03-20T12:29:38.333Z,24.96
2023-03-20T12:31:12.742Z,24.83
2023-03-20T12:32:45.944Z,24.71
2023-03-20T12:34:26.539Z,24.75
2023-03-20T12:35:58.741Z,24.83
2023-03-20T12:37:31.992Z,24.85
2023-03-20T12:39:04.466Z,24.69
2023-03-20T12:40:43.755Z,24.72
2023-03-20T12:42:21.676Z,24.76
2023-03-20T12:43:53.265Z,24.77
2023-03-20T12:45:39.386Z,24.85
2023-03-20T12:47:26.513Z,25.04
2023-03-20T12:49:01.794Z,25.16
2023-03-20T12:50:59.829Z,25.20
2023-03-20T12:52:50.326Z,25.22
2023-03-20T12:54:22.050Z,25.17
2023-03-20T12:55:56.695Z,25.15
2023-03-20T12:57:32.314Z,25.06
2023-03-20T12:59:09.677Z,24.97
2023-03-20T13:00:50.597Z,24.94
2023-03-20T13:02:32.679Z,25.03
2023-03-20T13:04:23.035Z,25.04
2023-03-20T13:06:04.913Z,25.12
2023-03-20T13:07:43.831Z,25.24
2023-03-20T13:09:33.547Z,25.37
2023-03-20T13:11:08.503Z,25.44
2023-03-20T13:13:00.589Z,25.47
2023-03-20T13:14:38.498Z,25.46
2023-03-20T13:16:13.597Z,25.48
2023-03-20T13:17:51.185Z,25.55
2023-03-20T13:19:32.572Z,25.69
2023-03-20T13:21:06.890Z,25.79
2023-03-20T13:22:45.853Z,25.84
2023-03-20T13:24:23.206Z,25.92
2023-03-20T13:26:07.224Z,25.85
2023-03-20T13:27:43.294Z,25.92
2023-03-20T13:29:27.854Z,25.94
2023-03-20T13:31:06.689Z,25.93
2023-03-20T13:32:51.059Z,25.81
2023-03-20T13:34:35.799Z,25.72
2023-03-20T13:36:12.685Z,25.73
2023-03-20T13:37:54.739Z,25.70
2023-03-20T13:39:36.261Z,25.71
2023-03-20T13:41:09.850Z,25.53
2023-03-20T13:42:46.315Z,25.27
2023-03-20T13:44:19.883Z,25.16
2023-03-20T13:45:52.575Z,25.14
2023-03-20T13:47:25.295Z,24.94
2023-03-20T13:48:58.076Z,24.89
2023-03-20T13:50:33.500Z,24.94
2023-03-20T13:52:07.881Z,24.95
2023-03-20T13:53:42.611Z,25.02
2023-03-20T13:55:34.740Z,25.08
2023-03-20T13:57:15.450Z,25.22
2023-03-20T13:58:47.543Z,25.34
2023-03-20T14:00:34.983Z,25.41
2023-03-20T14:02:14.440Z,25.50
2023-03-20T14:03:58.665Z,25.59
2023-03-20T14:08:21.922Z,25.81
2023-03-20T14:09:54.271Z,25.90
2023-03-20T14:11:32.617Z,25.97
2023-03-20T14:13:05.698Z,26.08
2023-03-20T14:14:44.207Z,26.14
2023-03-20T14:16:17.674Z,26.05
2023-03-20T14:17:49.317Z,25.95
2023-03-20T14:19:22.081Z,25.91
2023-03-20T14:21:01.084Z,25.91
2023-03-20T14:22:36.765Z,25.83
2023-03-20T14:24:08.444Z,25.81
2023-03-20T14:25:40.956Z,25.81
2023-03-20T14:27:17.976Z,25.81
2023-03-20T14:28:54.253Z,25.86
2023-03-20T14:30:31.819Z,25.84
2023-03-20T14:32:22.359Z,25.82
2023-03-20T14:33:55.544Z,25.87
2023-03-20T14:35:27.525Z,25.87
2023-03-20T14:37:05.746Z,25.89
2023-03-20T14:38:37.282Z,25.86
2023-03-20T14:40:16.670Z,25.78
2023-03-20T14:42:03.283Z,25.73
2023-03-20T14:43:56.909Z,25.65
2023-03-20T14:45:37.707Z,25.49
2023-03-20T14:49:42.902Z,25.19
2023-03-20T14:51:22.874Z,25.10
2023-03-20T14:53:04.385Z,25.00
2023-03-20T14:54:36.671Z,24.92
2023-03-20T14:56:09.906Z,24.85
2023-03-20T14:57:55.484Z,24.78
2023-03-20T14:59:28.036Z,24.69
2023-03-20T15:01:03.401Z,24.62
2023-03-20T15:02:35.496Z,24.55
2023-03-20T15:04:17.131Z,24.46
2023-03-20T15:05:50.717Z,24.41
2023-03-20T15:07:31.579Z,24.36
2023-03-20T15:09:07.579Z,24.28
2023-03-20T15:10:46.187Z,24.22
2023-03-20T15:12:19.811Z,24.19
2023-03-20T15:13:52.057Z,24.12
2023-03-20T15:15:25.134Z,24.03
2023-03-20T15:16:57.643Z,23.94
2023-03-20T15:18:29.348Z,23.89
2023-03-20T15:20:01.911Z,23.83
2023-03-20T15:21:34.490Z,23.79
2023-03-20T15:23:06.677Z,23.74
2023-03-20T15:24:38.394Z,23.74
2023-03-20T15:26:10.343Z,23.72
2023-03-20T15:27:42.163Z,23.69
2023-03-20T15:29:15.316Z,23.69
2023-03-20T15:30:47.179Z,23.69
2023-03-20T15:32:18.926Z,23.71
2023-03-20T15:33:50.600Z,23.74
2023-03-20T15:35:23.559Z,23.72
2023-03-20T15:36:58.393Z,23.69
2023-03-20T15:38:32.510Z,23.68
2023-03-20T15:40:10.380Z,23.66
2023-03-20T15:41:44.898Z,23.64
2023-03-20T15:43:20.476Z,23.60
2023-03-20T15:44:52.746Z,23.53
2023-03-20T15:46:27.947Z,23.48
2023-03-20T15:48:00.689Z,23.44
2023-03-20T15:49:32.411Z,23.44
2023-03-20T15:51:06.911Z,23.41
2023-03-20T15:52:38.558Z,23.39
2023-03-20T15:54:11.681Z,23.34
2023-03-20T15:55:46.823Z,23.30
2023-03-20T15:57:25.555Z,23.23
2023-03-20T15:58:57.284Z,23.13
2023-03-20T16:00:32.527Z,22.99
2023-03-20T16:02:04.336Z,22.87
2023-03-20T16:03:37.469Z,22.70
2023-03-20T16:05:09.757Z,22.58
2023-03-20T16:06:48.215Z,22.44
2023-03-20T16:08:32.670Z,22.33
2023-03-20T16:10:12.114Z,22.26
2023-03-20T16:11:44.815Z,22.18
2023-03-20T16:13:18.345Z,22.12
2023-03-20T16:14:50.393Z,22.01
2023-03-20T16:16:23.984Z,21.94
2023-03-20T16:17:56.629Z,21.86
2023-03-20T16:19:29.400Z,21.76
2023-03-20T16:21:02.576Z,21.63
2023-03-20T16:22:34.182Z,21.57
2023-03-20T16:24:07.042Z,21.47
2023-03-20T16:25:38.755Z,21.40
2023-03-20T16:27:10.619Z,21.28
2023-03-20T16:28:42.263Z,21.23
2023-03-20T16:30:14.926Z,21.12
2023-03-20T16:31:50.395Z,20.99
2023-03-20T16:33:22.254Z,20.93
2023-03-20T16:34:54.490Z,20.82
2023-03-20T16:36:28.299Z,20.72
2023-03-20T16:38:07.798Z,20.60
2023-03-20T16:39:50.107Z,20.44
2023-03-20T16:47:01.527Z,20.08
2023-03-20T16:48:33.943Z,20.01
2023-03-20T16:50:05.791Z,19.97
2023-03-20T16:51:37.479Z,19.92
2023-03-20T16:53:12.648Z,19.92
2023-03-20T16:54:44.697Z,19.85
2023-03-20T16:56:38.311Z,19.79
2023-03-20T16:58:18.036Z,19.81
2023-03-20T17:00:05.487Z,19.78
2023-03-20T17:01:41.374Z,19.68
2023-03-20T17:03:17.291Z,19.63
2023-03-20T17:04:49.095Z,19.67
2023-03-20T17:06:22.047Z,19.67
2023-03-20T17:07:55.731Z,19.66
2023-03-20T17:09:33.328Z,19.64
2023-03-20T17:11:06.353Z,19.56
2023-03-20T17:12:54.773Z,19.50
2023-03-20T17:14:27.380Z,19.45
2023-03-20T17:16:08.839Z,19.38
2023-03-20T17:17:46.084Z,19.25
2023-03-20T17:19:29.044Z,19.07
2023-03-20T17:21:01.716Z,18.89
2023-03-20T17:22:33.743Z,18.78
2023-03-20T17:24:05.759Z,18.72
2023-03-20T17:25:37.349Z,18.59
2023-03-20T17:27:09.844Z,18.46
2023-03-20T17:28:42.693Z,18.40
2023-03-20T17:30:21.185Z,18.27
2023-03-20T17:31:53.046Z,18.14
2023-03-20T17:33:24.787Z,18.08
2023-03-20T17:34:56.295Z,18.00
2023-03-20T17:36:29.238Z,17.93
2023-03-20T17:38:01.329Z,17.90
2023-03-20T17:39:32.988Z,17.89
2023-03-20T17:41:05.154Z,17.91
2023-03-20T17:42:39.349Z,17.91
2023-03-20T17:44:11.518Z,17.93
2023-03-20T17:45:43.374Z,17.96
2023-03-20T17:47:15.603Z,17.96
2023-03-20T17:48:50.443Z,17.99
2023-03-20T17:50:24.673Z,18.10
2023-03-20T17:51:57.095Z,18.14
2023-03-20T17:53:31.000Z,18.16
2023-03-20T17:55:02.953Z,18.21
2023-03-20T17:56:34.705Z,18.22
2023-03-20T17:58:06.459Z,18.22
2023-03-20T17:59:38.025Z,18.23
2023-03-20T18:01:09.991Z,18.19
2023-03-20T18:02:41.586Z,18.22
2023-03-20T18:04:13.264Z,18.24
2023-03-20T18:05:48.973Z,18.20
2023-03-20T18:07:20.752Z,18.11
2023-03-20T18:08:58.332Z,18.07
2023-03-20T18:10:38.766Z,18.11
2023-03-20T18:12:50.896Z,18.14
2023-03-20T18:14:22.629Z,18.23
2023-03-20T18:15:57.956Z,18.28
2023-03-20T18:17:29.594Z,18.32
2023-03-20T18:19:01.636Z,18.31
2023-03-20T18:20:34.558Z,18.29
2023-03-20T18:22:07.245Z,18.27
2023-03-20T18:23:38.867Z,18.25
2023-03-20T18:25:10.415Z,18.19
2023-03-20T18:26:44.334Z,18.12
2023-03-20T18:28:20.779Z,18.01
2023-03-20T18:29:52.648Z,17.86
2023-03-20T18:31:24.244Z,17.74
2023-03-20T18:32:55.911Z,17.63
2023-03-20T18:34:27.709Z,17.56
2023-03-20T18:36:00.204Z,17.51
2023-03-20T18:37:32.348Z,17.47
2023-03-20T18:39:05.302Z,17.45
2023-03-20T18:40:40.406Z,17.43
2023-03-20T18:42:12.237Z,17.40
2023-03-20T18:43:44.040Z,17.38
2023-03-20T18:45:15.724Z,17.34
2023-03-20T18:46:47.471Z,17.31
2023-03-20T18:48:19.013Z,17.32
2023-03-20T18:49:50.799Z,17.35
2023-03-20T18:51:22.493Z,17.32
2023-03-20T18:52:54.632Z,17.31
2023-03-20T18:54:26.149Z,17.28
2023-03-20T18:55:57.761Z,17.28
2023-03-20T18:57:29.438Z,17.29
2023-03-20T18:59:01.500Z,17.24
2023-03-20T19:00:38.398Z,17.20
2023-03-20T19:02:10.157Z,17.15
2023-03-20T19:03:42.749Z,17.08
2023-03-20T19:05:15.209Z,17.06
2023-03-20T19:06:47.494Z,16.99
2023-03-20T19:08:19.322Z,17.00
2023-03-20T19:09:50.945Z,17.06
2023-03-20T19:11:22.677Z,17.08
2023-03-20T19:12:54.478Z,17.09
2023-03-20T19:14:26.340Z,17.12
2023-03-20T19:15:58.472Z,17.15
2023-03-20T19:17:30.548Z,17.13
2023-03-20T19:19:03.010Z,17.11
2023-03-20T19:20:41.956Z,17.11
2023-03-20T19:22:28.117Z,17.09
2023-03-20T19:24:05.314Z,17.09
2023-03-20T19:25:37.260Z,17.09
2023-03-20T19:27:09.169Z,17.10
2023-03-20T19:28:41.936Z,17.16
2023-03-20T19:30:16.875Z,17.16
2023-03-20T19:31:48.670Z,17.20
2023-03-20T19:33:20.441Z,17.24
2023-03-20T19:36:43.988Z,17.18
2023-03-20T19:38:26.607Z,17.12
2023-03-20T19:40:17.923Z,17.16
2023-03-20T19:41:55.927Z,17.18
2023-03-20T19:43:29.150Z,17.19
2023-03-20T19:45:00.903Z,17.21
2023-03-20T19:46:41.900Z,17.23
2023-03-20T19:48:13.779Z,17.26
2023-03-20T19:49:45.372Z,17.28
2023-03-20T19:51:29.756Z,17.34
2023-03-20T19:53:02.256Z,17.39
2023-03-20T19:54:33.980Z,17.38
2023-03-20T19:56:05.784Z,17.41
2023-03-20T19:57:37.744Z,17.40
2023-03-20T19:59:09.436Z,17.40
2023-03-20T20:00:58.906Z,17.38
2023-03-20T20:02:31.425Z,17.33
2023-03-20T20:04:03.059Z,17.28
2023-03-20T20:05:35.824Z,17.24
2023-03-20T20:07:53.083Z,17.21
2023-03-20T20:08:58.994Z,17.21
2023-03-20T20:10:32.342Z,17.22
2023-03-20T20:12:04.410Z,17.22
2023-03-20T20:13:47.121Z,17.20
2023-03-20T20:15:28.054Z,17.13
2023-03-20T20:17:00.190Z,17.11
2023-03-20T20:18:31.844Z,17.14
2023-03-20T20:20:06.847Z,17.13
2023-03-20T20:23:30.419Z,16.98
2023-03-20T20:25:02.191Z,16.89
2023-03-20T20:26:38.932Z,16.83
2023-03-20T20:28:13.113Z,16.75
2023-03-20T20:29:50.959Z,16.66
2023-03-20T20:31:27.893Z,16.57
2023-03-20T20:33:03.484Z,16.51
2023-03-20T20:38:48.907Z,16.51
2023-03-20T20:40:14.563Z,16.53
2023-03-20T20:41:47.405Z,16.55
2023-03-20T20:43:47.202Z,16.57
2023-03-20T20:45:11.904Z,16.61
2023-03-20T20:46:43.510Z,16.62
2023-03-20T20:48:15.876Z,16.59
2023-03-20T20:49:48.029Z,16.56
2023-03-20T20:51:19.598Z,16.52
2023-03-20T20:52:51.707Z,16.47
2023-03-20T20:54:23.372Z,16.42
2023-03-20T20:55:55.004Z,16.40
2023-03-20T20:57:27.748Z,16.34
2023-03-20T20:58:59.362Z,16.23
2023-03-20T21:00:47.562Z,16.12
2023-03-20T21:02:20.941Z,16.06
2023-03-20T21:03:52.694Z,15.96
2023-03-20T21:05:24.226Z,15.90
2023-03-20T21:07:12.152Z,15.84
2023-03-20T21:08:44.197Z,15.81